Time;durP1;ratioP1;P1;durP2;ratioP2;P2;SDS_P1;SDS_P2;PMS_P1;PMS_P2;Temp;Humidity;BMP_temperature;BMP_pressure;BME280_temperature;BME280_humidity;BME280_pressure;Samples;Min_cycle;Max_cycle;Signal;HPM_P1;HPM_P2
2022/09/05 00:01:13;;;;;;;;;;;;;;;;;;4991559;28;19921;-75
2022/09/05 00:03:38;;;;;;;;;;;;;;;;;;4976281;28;19918;-77
2022/09/05 00:06:03;;;;;;;;;;;;;;;;;;4976299;28;19921;-76
2022/09/05 00:08:29;;;;;;;;;;;;;;;;;;4991482;28;20278;-77
2022/09/05 00:10:54;;;;;;;;;;;;;;;;;;4976424;28;20012;-77
2022/09/05 00:13:20;;;;;;;;;;;;;;;;;;4975092;28;19914;-77
2022/09/05 00:15:45;;;;;;;;;;;;;;;;;;4974908;28;19914;-76
2022/09/05 00:18:10;;;;;;;;;;;;;;;;;;4959226;28;20381;-76
2022/09/05 00:20:36;;;;;;;;;;;;;;;;;;4975166;28;20373;-77
2022/09/05 00:23:01;;;;;;;;;;;;;;;;;;4976134;28;19918;-76
2022/09/05 00:25:26;;;;;;;;;;;;;;;;;;4975939;28;19918;-77
2022/09/05 00:27:52;;;;;;;;;;;;;;;;;;4974966;28;20362;-76
2022/09/05 00:30:17;;;;;;;;;;;;;;;;;;4974463;28;19969;-75
2022/09/05 00:32:43;;;;;;;;;;;;;;;;;;4989875;28;19961;-76
2022/09/05 00:35:08;;;;;;;;;;;;;;;;;;4994016;28;20373;-76
2022/09/05 00:37:33;;;;;;;;;;;;;;;;;;4994207;28;19921;-75
2022/09/05 00:39:58;;;;;;;;;;;;;;;;;;4993969;28;19921;-76
2022/09/05 00:42:24;;;;;;;;;;;;;;;;;;4993826;28;20001;-76
2022/09/05 00:44:49;;;;;;;;;;;;;;;;;;4994959;28;20285;-76
2022/09/05 00:47:15;;;;;;;;;;;;;;;;;;4994977;28;20378;-76
2022/09/05 00:49:40;;;;;;;;;;;;;;;;;;4983707;28;19969;-75
2022/09/05 00:52:05;;;;;;;;;;;;;;;;;;4975428;28;19918;-73
2022/09/05 00:54:31;;;;;;;;;;;;;;;;;;4974137;28;20303;-75
2022/09/05 00:56:56;;;;;;;;;;;;;;;;;;4974139;28;19914;-77
2022/09/05 00:59:22;;;;;;;;;;;;;;;;;;4975260;28;20005;-76
2022/09/05 01:01:47;;;;;;;;;;;;;;;;;;4975162;28;20448;-76
2022/09/05 01:04:13;;;;;;;;;;;;;;;;;;4979284;28;19922;-76
2022/09/05 01:06:38;;;;;;;;;;;;;;;;;;4991299;28;20386;-77
2022/09/05 01:09:03;;;;;;;;;;;;;;;;;;4975294;28;19914;-76
2022/09/05 01:11:31;;;;;;;;;;;;;;;;;;4973918;28;19921;-74
2022/09/05 01:13:56;;;;;;;;;;;;;;;;;;4974776;28;19947;-75
2022/09/05 01:16:22;;;;;;;;;;;;;;;;;;4974965;28;19914;-75
2022/09/05 01:18:47;;;;;;;;;;;;;;;;;;4974759;28;19921;-75
2022/09/05 01:21:12;;;;;;;;;;;;;;;;;;4973724;28;20409;-76
2022/09/05 01:23:38;;;;;;;;;;;;;;;;;;4957610;28;20017;-77
2022/09/05 01:26:03;;;;;;;;;;;;;;;;;;4991899;28;19922;-76
2022/09/05 01:28:28;;;;;;;;;;;;;;;;;;4993122;28;19913;-76
2022/09/05 01:30:54;;;;;;;;;;;;;;;;;;4994020;28;19910;-75
2022/09/05 01:33:19;;;;;;;;;;;;;;;;;;4992670;28;19952;-74
2022/09/05 01:35:44;;;;;;;;;;;;;;;;;;4993803;28;20350;-75
2022/09/05 01:38:10;;;;;;;;;;;;;;;;;;4994002;28;19914;-76
2022/09/05 01:40:36;;;;;;;;;;;;;;;;;;4985125;28;19941;-75
2022/09/05 01:43:01;;;;;;;;;;;;;;;;;;4972984;28;19918;-77
2022/09/05 01:45:27;;;;;;;;;;;;;;;;;;4973070;28;20377;-77
2022/09/05 01:47:52;;;;;;;;;;;;;;;;;;4974555;28;19914;-75
2022/09/05 01:50:18;;;;;;;;;;;;;;;;;;4957236;28;19930;-74
2022/09/05 01:52:44;;;;;;;;;;;;;;;;;;4974381;28;20057;-75
2022/09/05 01:55:09;;;;;;;;;;;;;;;;;;4974183;28;19949;-76
2022/09/05 01:57:35;;;;;;;;;;;;;;;;;;4972964;28;19914;-76
2022/09/05 02:00:00;;;;;;;;;;;;;;;;;;4973091;28;20290;-76
2022/09/05 02:02:25;;;;;;;;;;;;;;;;;;4988981;28;20314;-75
2022/09/05 02:04:51;;;;;;;;;;;;;;;;;;4973804;28;19918;-74
2022/09/05 02:07:16;;;;;;;;;;;;;;;;;;4974120;28;20349;-76
2022/09/05 02:09:42;;;;;;;;;;;;;;;;;;4973885;28;19929;-75
2022/09/05 02:12:09;;;;;;;;;;;;;;;;;;4988831;28;20389;-76
2022/09/05 02:14:34;;;;;;;;;;;;;;;;;;4977071;28;19941;-76
2022/09/05 02:16:59;;;;;;;;;;;;;;;;;;4993308;28;20345;-76
2022/09/05 02:19:25;;;;;;;;;;;;;;;;;;4991803;28;20416;-75
2022/09/05 02:21:50;;;;;;;;;;;;;;;;;;4993147;28;20357;-75
2022/09/05 02:24:16;;;;;;;;;;;;;;;;;;4991731;28;19917;-77
2022/09/05 02:26:41;;;;;;;;;;;;;;;;;;4993168;28;19945;-76
2022/09/05 02:29:06;;;;;;;;;;;;;;;;;;4993031;28;19915;-75
2022/09/05 02:31:32;;;;;;;;;;;;;;;;;;4978282;28;20270;-76
2022/09/05 02:33:57;;;;;;;;;;;;;;;;;;4972359;28;20444;-76
2022/09/05 02:36:22;;;;;;;;;;;;;;;;;;4972596;28;20567;-76
2022/09/05 02:38:48;;;;;;;;;;;;;;;;;;4972485;28;19933;-75
2022/09/05 02:41:13;;;;;;;;;;;;;;;;;;4973580;28;19918;-77
2022/09/05 02:43:39;;;;;;;;;;;;;;;;;;4972221;28;19918;-77
2022/09/05 02:46:04;;;;;;;;;;;;;;;;;;4972441;28;19969;-77
2022/09/05 02:48:29;;;;;;;;;;;;;;;;;;4988604;28;20397;-76
2022/09/05 02:50:55;;;;;;;;;;;;;;;;;;4972106;28;19918;-74
2022/09/05 02:53:20;;;;;;;;;;;;;;;;;;4972553;28;19914;-76
2022/09/05 02:55:45;;;;;;;;;;;;;;;;;;4989210;28;19920;-76
2022/09/05 02:58:11;;;;;;;;;;;;;;;;;;4992598;28;19910;-76
2022/09/05 03:00:36;;;;;;;;;;;;;;;;;;4992211;28;19920;-76
2022/09/05 03:03:02;;;;;;;;;;;;;;;;;;4986902;28;20348;-75
2022/09/05 03:05:27;;;;;;;;;;;;;;;;;;4996696;28;20013;-73
2022/09/05 03:07:53;;;;;;;;;;;;;;;;;;4995730;28;20389;-75
2022/09/05 03:10:18;;;;;;;;;;;;;;;;;;4979493;28;20365;-75
2022/09/05 03:12:43;;;;;;;;;;;;;;;;;;4995529;28;19964;-76
2022/09/05 03:15:09;;;;;;;;;;;;;;;;;;4995385;28;20293;-76
2022/09/05 03:17:34;;;;;;;;;;;;;;;;;;4979044;28;19914;-76
2022/09/05 03:19:59;;;;;;;;;;;;;;;;;;4990954;28;19926;-76
2022/09/05 03:22:26;;;;;;;;;;;;;;;;;;4959666;28;19914;-75
2022/09/05 03:24:51;;;;;;;;;;;;;;;;;;4959858;28;20431;-76
2022/09/05 03:27:17;;;;;;;;;;;;;;;;;;4976963;28;20000;-77
2022/09/05 03:29:42;;;;;;;;;;;;;;;;;;4976811;28;19914;-76
2022/09/05 03:32:07;;;;;;;;;;;;;;;;;;4976936;28;19914;-75
2022/09/05 03:34:33;;;;;;;;;;;;;;;;;;4959539;28;19968;-76
2022/09/05 03:36:58;;;;;;;;;;;;;;;;;;4959541;28;19914;-75
2022/09/05 03:39:24;;;;;;;;;;;;;;;;;;4975791;28;20396;-76
2022/09/05 03:41:49;;;;;;;;;;;;;;;;;;4976910;28;19914;-76
2022/09/05 03:44:14;;;;;;;;;;;;;;;;;;4975473;28;20025;-76
2022/09/05 03:46:40;;;;;;;;;;;;;;;;;;4975720;28;20404;-75
2022/09/05 03:49:05;;;;;;;;;;;;;;;;;;4976301;28;20267;-75
2022/09/05 03:51:30;;;;;;;;;;;;;;;;;;4976538;28;19975;-75
2022/09/05 03:53:56;;;;;;;;;;;;;;;;;;4975179;28;20524;-76
2022/09/05 03:56:21;;;;;;;;;;;;;;;;;;4959398;28;20318;-76
2022/09/05 03:58:46;;;;;;;;;;;;;;;;;;4976564;28;19914;-77
2022/09/05 04:01:12;;;;;;;;;;;;;;;;;;4959199;28;19921;-76
2022/09/05 04:03:37;;;;;;;;;;;;;;;;;;4975006;28;19915;-77
2022/09/05 04:06:02;;;;;;;;;;;;;;;;;;4976142;28;19949;-75
2022/09/05 04:08:28;;;;;;;;;;;;;;;;;;4974807;28;19914;-76
2022/09/05 04:10:53;;;;;;;;;;;;;;;;;;4975039;28;19918;-75
2022/09/05 04:13:18;;;;;;;;;;;;;;;;;;4976047;28;19914;-74
2022/09/05 04:15:44;;;;;;;;;;;;;;;;;;4976061;28;20326;-75
2022/09/05 04:18:09;;;;;;;;;;;;;;;;;;4975978;28;20350;-76
2022/09/05 04:20:34;;;;;;;;;;;;;;;;;;4975000;28;19915;-76
2022/09/05 04:23:00;;;;;;;;;;;;;;;;;;4975814;28;19973;-77
2022/09/05 04:25:25;;;;;;;;;;;;;;;;;;4975570;28;20016;-76
2022/09/05 04:27:50;;;;;;;;;;;;;;;;;;4981744;28;20431;-77
2022/09/05 04:30:16;;;;;;;;;;;;;;;;;;4994933;28;20266;-76
2022/09/05 04:32:41;;;;;;;;;;;;;;;;;;4994633;28;19921;-75
2022/09/05 04:35:07;;;;;;;;;;;;;;;;;;4994919;28;19960;-76
2022/09/05 04:37:32;;;;;;;;;;;;;;;;;;4994971;28;19933;-76
2022/09/05 04:39:57;;;;;;;;;;;;;;;;;;4977502;28;20045;-77
2022/09/05 04:42:23;;;;;;;;;;;;;;;;;;4977314;28;19952;-76
2022/09/05 04:44:48;;;;;;;;;;;;;;;;;;4992765;28;19917;-76
2022/09/05 04:47:13;;;;;;;;;;;;;;;;;;4975251;28;20033;-75
2022/09/05 04:49:39;;;;;;;;;;;;;;;;;;5032304;23;19953;-78
2022/09/05 04:52:04;;;;;;;;;;;;;;;;;;5013829;28;19917;-79
2022/09/05 04:54:30;;;;;;;;;;;;;;;;;;5012462;28;19917;-79
2022/09/05 04:56:55;;;;;;;;;;;;;;;;;;5012997;28;19956;-79
2022/09/05 04:59:21;;;;;;;;;;;;;;;;;;5013999;28;20356;-77
2022/09/05 05:01:47;;;;;;;;;;;;;;;;;;5014026;28;19913;-81
2022/09/05 05:04:15;;;;;;;;;;;;;;;;;;4992543;28;19967;-80
2022/09/05 05:06:40;;;;;;;;;;;;;;;;;;5009466;28;19941;-80
2022/09/05 05:09:05;;;;;;;;;;;;;;;;;;4994124;28;19914;-80
2022/09/05 05:11:31;;;;;;;;;;;;;;;;;;4994204;28;19914;-81
2022/09/05 05:13:56;;;;;;;;;;;;;;;;;;4994086;28;19921;-81
2022/09/05 05:16:22;;;;;;;;;;;;;;;;;;4993706;28;19909;-80
2022/09/05 05:18:47;;;;;;;;;;;;;;;;;;4993016;28;19917;-81
2022/09/05 05:21:12;;;;;;;;;;;;;;;;;;4992114;28;19941;-78
2022/09/05 05:23:38;;;;;;;;;;;;;;;;;;4992834;28;20349;-78
2022/09/05 05:26:03;;;;;;;;;;;;;;;;;;4975960;28;20333;-78
2022/09/05 05:28:28;;;;;;;;;;;;;;;;;;4992189;28;20273;-80
2022/09/05 05:30:54;;;;;;;;;;;;;;;;;;4993608;28;19914;-78
2022/09/05 05:33:19;;;;;;;;;;;;;;;;;;4993216;28;19917;-78
2022/09/05 05:35:44;;;;;;;;;;;;;;;;;;4993246;28;19913;-78
2022/09/05 05:38:10;;;;;;;;;;;;;;;;;;5001252;28;20447;-78
2022/09/05 05:40:35;;;;;;;;;;;;;;;;;;5011851;28;19949;-78
2022/09/05 05:43:01;;;;;;;;;;;;;;;;;;5012852;28;19920;-77
2022/09/05 05:45:26;;;;;;;;;;;;;;;;;;5012978;28;19944;-77
2022/09/05 05:47:51;;;;;;;;;;;;;;;;;;5011747;28;20380;-80
2022/09/05 05:50:17;;;;;;;;;;;;;;;;;;5011668;28;19913;-79
2022/09/05 05:52:42;;;;;;;;;;;;;;;;;;5011434;28;19963;-80
2022/09/05 05:55:08;;;;;;;;;;;;;;;;;;4981040;28;19921;-81
2022/09/05 05:57:34;;;;;;;;;;;;;;;;;;5009149;28;20345;-81
2022/09/05 06:00:00;;;;;;;;;;;;;;;;;;5008216;28;19957;-80
2022/09/05 06:02:25;;;;;;;;;;;;;;;;;;5008445;28;19956;-80
2022/09/05 06:04:51;;;;;;;;;;;;;;;;;;4991818;28;20289;-80
2022/09/05 06:07:16;;;;;;;;;;;;;;;;;;4993032;28;19910;-79
2022/09/05 06:09:43;;;;;;;;;;;;;;;;;;4998941;28;20349;-79
2022/09/05 06:12:10;;;;;;;;;;;;;;;;;;4995385;28;19913;-80
2022/09/05 06:14:37;;;;;;;;;;;;;;;;;;5011447;28;19914;-76
2022/09/05 06:17:03;;;;;;;;;;;;;;;;;;5013973;28;19920;-80
2022/09/05 06:19:29;;;;;;;;;;;;;;;;;;4995261;28;20015;-80
2022/09/05 06:21:54;;;;;;;;;;;;;;;;;;5011617;28;19992;-80
2022/09/05 06:24:21;;;;;;;;;;;;;;;;;;5011412;28;19936;-80
2022/09/05 06:26:49;;;;;;;;;;;;;;;;;;4994986;28;20010;-79
2022/09/05 06:29:15;;;;;;;;;;;;;;;;;;4993969;28;19960;-80
2022/09/05 06:31:40;;;;;;;;;;;;;;;;;;4994340;28;19910;-86
2022/09/05 06:34:06;;;;;;;;;;;;;;;;;;4995017;28;19914;-85
2022/09/05 06:36:31;;;;;;;;;;;;;;;;;;5017569;28;20341;-86
2022/09/05 06:38:57;;;;;;;;;;;;;;;;;;4982119;28;19914;-87
2022/09/05 06:41:22;;;;;;;;;;;;;;;;;;5008058;28;19940;-87
2022/09/05 06:43:48;;;;;;;;;;;;;;;;;;4998891;28;19945;-86
2022/09/05 06:46:13;;;;;;;;;;;;;;;;;;5014439;28;19922;-87
2022/09/05 06:48:38;;;;;;;;;;;;;;;;;;4981674;28;19924;-86
2022/09/05 06:51:04;;;;;;;;;;;;;;;;;;5012260;28;19918;-89
2022/09/05 06:53:29;;;;;;;;;;;;;;;;;;5027213;28;19914;-86
2022/09/05 06:55:55;;;;;;;;;;;;;;;;;;4979673;28;20361;-88
2022/09/05 06:58:21;;;;;;;;;;;;;;;;;;4995733;28;19953;-86
2022/09/05 07:00:47;;;;;;;;;;;;;;;;;;4978438;28;20440;-85
2022/09/05 07:03:12;;;;;;;;;;;;;;;;;;4977221;28;19933;-88
2022/09/05 07:05:38;;;;;;;;;;;;;;;;;;4992943;28;19921;-88
2022/09/05 07:08:04;;;;;;;;;;;;;;;;;;4993846;28;19990;-87
2022/09/05 07:10:29;;;;;;;;;;;;;;;;;;4994056;28;20408;-85
2022/09/05 07:12:54;;;;;;;;;;;;;;;;;;4965903;28;20008;-85
2022/09/05 07:15:20;;;;;;;;;;;;;;;;;;4981335;28;19913;-86
2022/09/05 07:17:46;;;;;;;;;;;;;;;;;;5013998;28;20288;-89
2022/09/05 07:20:12;;;;;;;;;;;;;;;;;;5012642;28;19960;-85
2022/09/05 07:22:37;;;;;;;;;;;;;;;;;;5010845;28;20393;-82
2022/09/05 07:25:03;;;;;;;;;;;;;;;;;;5010851;28;19940;-82
2022/09/05 07:27:28;;;;;;;;;;;;;;;;;;5013092;28;19971;-86
2022/09/05 07:29:55;;;;;;;;;;;;;;;;;;5010737;28;20008;-84
2022/09/05 07:32:22;;;;;;;;;;;;;;;;;;4992444;28;19914;-83
2022/09/05 07:34:48;;;;;;;;;;;;;;;;;;4992238;28;19921;-84
2022/09/05 07:37:13;;;;;;;;;;;;;;;;;;4991197;28;20297;-85
2022/09/05 07:39:38;;;;;;;;;;;;;;;;;;4992030;28;19918;-84
2022/09/05 07:42:05;;;;;;;;;;;;;;;;;;4975923;28;19914;-85
2022/09/05 07:44:30;;;;;;;;;;;;;;;;;;4994410;28;19924;-84
2022/09/05 07:46:55;;;;;;;;;;;;;;;;;;4996684;28;19914;-84
2022/09/05 07:49:22;;;;;;;;;;;;;;;;;;5014142;28;19996;-85
2022/09/05 07:51:47;;;;;;;;;;;;;;;;;;5014425;28;19917;-85
2022/09/05 07:54:15;;;;;;;;;;;;;;;;;;5015624;28;20012;-83
2022/09/05 07:56:41;;;;;;;;;;;;;;;;;;5014638;28;19914;-83
2022/09/05 07:59:07;;;;;;;;;;;;;;;;;;5014319;28;19920;-85
2022/09/05 08:01:32;;;;;;;;;;;;;;;;;;5015780;28;19941;-86
2022/09/05 08:03:58;;;;;;;;;;;;;;;;;;5013759;28;19924;-84
2022/09/05 08:06:24;;;;;;;;;;;;;;;;;;5016446;28;19923;-85
2022/09/05 08:08:49;;;;;;;;;;;;;;;;;;5015959;28;19953;-85
2022/09/05 08:11:14;;;;;;;;;;;;;;;;;;5014481;28;19914;-85
2022/09/05 08:13:44;;;;;;;;;;;;;;;;;;5014076;28;19910;-85
2022/09/05 08:16:09;;;;;;;;;;;;;;;;;;5015391;28;19913;-85
2022/09/05 08:18:35;;;;;;;;;;;;;;;;;;5015251;28;20056;-85
2022/09/05 08:21:00;;;;;;;;;;;;;;;;;;5014379;28;20273;-85
2022/09/05 08:23:26;;;;;;;;;;;;;;;;;;5011159;28;19960;-84
2022/09/05 08:25:51;;;;;;;;;;;;;;;;;;4995737;28;19929;-84
2022/09/05 08:28:18;;;;;;;;;;;;;;;;;;4995424;28;20012;-84
2022/09/05 08:30:43;;;;;;;;;;;;;;;;;;4994761;28;20381;-86
2022/09/05 08:33:08;;;;;;;;;;;;;;;;;;4995841;28;19997;-85
2022/09/05 08:35:34;;;;;;;;;;;;;;;;;;4995690;28;19921;-84
2022/09/05 08:37:59;;;;;;;;;;;;;;;;;;4982267;28;19969;-85
2022/09/05 08:40:25;;;;;;;;;;;;;;;;;;4995673;28;20305;-85
2022/09/05 08:42:50;;;;;;;;;;;;;;;;;;4994729;28;19921;-84
2022/09/05 08:45:15;;;;;;;;;;;;;;;;;;4995545;28;20024;-85
2022/09/05 08:47:41;;;;;;;;;;;;;;;;;;4994898;28;20015;-85
2022/09/05 08:50:06;;;;;;;;;;;;;;;;;;4994473;28;19996;-83
2022/09/05 08:52:31;;;;;;;;;;;;;;;;;;4994327;28;19921;-85
2022/09/05 08:54:57;;;;;;;;;;;;;;;;;;5002376;28;20457;-84
2022/09/05 08:57:22;;;;;;;;;;;;;;;;;;5013886;28;19913;-85
2022/09/05 08:59:48;;;;;;;;;;;;;;;;;;5013722;28;20000;-85
2022/09/05 09:02:13;;;;;;;;;;;;;;;;;;4997601;28;20321;-85
2022/09/05 09:04:38;;;;;;;;;;;;;;;;;;5014682;28;20294;-86
2022/09/05 09:07:04;;;;;;;;;;;;;;;;;;4981895;28;20008;-85
2022/09/05 09:09:29;;;;;;;;;;;;;;;;;;5013943;28;19960;-84
2022/09/05 09:11:55;;;;;;;;;;;;;;;;;;5012244;28;19917;-85
2022/09/05 09:14:20;;;;;;;;;;;;;;;;;;5013713;28;20533;-86
2022/09/05 09:16:45;;;;;;;;;;;;;;;;;;5013988;28;19920;-85
2022/09/05 09:19:11;;;;;;;;;;;;;;;;;;5012580;28;20392;-85
2022/09/05 09:21:36;;;;;;;;;;;;;;;;;;5013584;28;19975;-85
2022/09/05 09:24:02;;;;;;;;;;;;;;;;;;4996396;28;19920;-84
2022/09/05 09:26:27;;;;;;;;;;;;;;;;;;5013963;28;19917;-84
2022/09/05 09:28:52;;;;;;;;;;;;;;;;;;5004257;28;19913;-86
2022/09/05 09:31:18;;;;;;;;;;;;;;;;;;4995824;28;19914;-86
2022/09/05 09:33:45;;;;;;;;;;;;;;;;;;4993415;28;19917;-86
2022/09/05 09:36:11;;;;;;;;;;;;;;;;;;5014747;28;19965;-87
2022/09/05 09:38:36;;;;;;;;;;;;;;;;;;4997183;28;19926;-86
2022/09/05 09:41:02;;;;;;;;;;;;;;;;;;4996095;28;19920;-88
2022/09/05 09:43:27;;;;;;;;;;;;;;;;;;4999400;28;20006;-88
2022/09/05 09:45:52;;;;;;;;;;;;;;;;;;5017704;28;19922;-88
2022/09/05 09:48:18;;;;;;;;;;;;;;;;;;5009171;28;19918;-87
2022/09/05 09:50:43;;;;;;;;;;;;;;;;;;4985539;28;19917;-85
2022/09/05 09:53:12;;;;;;;;;;;;;;;;;;4986143;28;19921;-86
2022/09/05 09:55:39;;;;;;;;;;;;;;;;;;4982773;28;19914;-84
2022/09/05 09:58:06;;;;;;;;;;;;;;;;;;4996419;28;20388;-86
2022/09/05 10:00:31;;;;;;;;;;;;;;;;;;4998621;28;19914;-84
2022/09/05 10:02:58;;;;;;;;;;;;;;;;;;4994768;28;20273;-84
2022/09/05 10:05:25;;;;;;;;;;;;;;;;;;4996878;28;19973;-84
2022/09/05 10:07:52;;;;;;;;;;;;;;;;;;5012449;28;19917;-85
2022/09/05 10:10:17;;;;;;;;;;;;;;;;;;5011920;28;19918;-83
2022/09/05 10:12:44;;;;;;;;;;;;;;;;;;5012935;28;19920;-85
2022/09/05 10:15:09;;;;;;;;;;;;;;;;;;5012759;28;20000;-84
2022/09/05 10:17:34;;;;;;;;;;;;;;;;;;5014329;28;20373;-86
2022/09/05 10:20:00;;;;;;;;;;;;;;;;;;4996768;28;19921;-86
2022/09/05 10:22:25;;;;;;;;;;;;;;;;;;5013831;28;19945;-85
2022/09/05 10:24:51;;;;;;;;;;;;;;;;;;5017553;28;19917;-84
2022/09/05 10:27:18;;;;;;;;;;;;;;;;;;5014247;28;19970;-83
2022/09/05 10:29:43;;;;;;;;;;;;;;;;;;5015880;28;19960;-84
2022/09/05 10:32:09;;;;;;;;;;;;;;;;;;4998541;28;20277;-83
2022/09/05 10:34:35;;;;;;;;;;;;;;;;;;5016451;28;19992;-84
2022/09/05 10:37:01;;;;;;;;;;;;;;;;;;4999323;28;19988;-83
2022/09/05 10:39:26;;;;;;;;;;;;;;;;;;5014620;28;19971;-83
2022/09/05 10:41:52;;;;;;;;;;;;;;;;;;5011552;28;19959;-85
2022/09/05 10:44:17;;;;;;;;;;;;;;;;;;5011145;28;20407;-83
2022/09/05 10:46:44;;;;;;;;;;;;;;;;;;5012042;28;20055;-84
2022/09/05 10:49:09;;;;;;;;;;;;;;;;;;5011903;28;19913;-84
2022/09/05 10:51:35;;;;;;;;;;;;;;;;;;5012747;28;19925;-86
2022/09/05 10:54:00;;;;;;;;;;;;;;;;;;5014548;28;19913;-84
2022/09/05 10:56:25;;;;;;;;;;;;;;;;;;5011687;28;20003;-85
2022/09/05 10:58:51;;;;;;;;;;;;;;;;;;5012469;28;19910;-84
2022/09/05 11:01:16;;;;;;;;;;;;;;;;;;5012295;28;19914;-83
2022/09/05 11:03:42;;;;;;;;;;;;;;;;;;5012037;28;20359;-84
2022/09/05 11:06:08;;;;;;;;;;;;;;;;;;5011008;28;19983;-83
2022/09/05 11:08:34;;;;;;;;;;;;;;;;;;5011261;28;19925;-84
2022/09/05 11:11:00;;;;;;;;;;;;;;;;;;4995427;28;19935;-82
2022/09/05 11:13:25;;;;;;;;;;;;;;;;;;4995873;28;19949;-85
2022/09/05 11:15:51;;;;;;;;;;;;;;;;;;5011965;28;19913;-85
2022/09/05 11:18:16;;;;;;;;;;;;;;;;;;5011236;28;20381;-85
2022/09/05 11:27:51;;;;;;;;;;;;;;;;;;5011936;28;19991;-84
2022/09/05 11:30:54;;;;;;;;;;;;;;;;;;4989835;28;19913;-85
2022/09/05 11:33:21;;;;;;;;;;;;;;;;;;5016776;28;20440;-85
2022/09/05 11:35:46;;;;;;;;;;;;;;;;;;5016228;28;19972;-86
2022/09/05 11:38:13;;;;;;;;;;;;;;;;;;5002088;28;20362;-86
2022/09/05 11:40:38;;;;;;;;;;;;;;;;;;5015357;28;19917;-85
2022/09/05 11:43:04;;;;;;;;;;;;;;;;;;4998909;28;19921;-86
2022/09/05 11:45:29;;;;;;;;;;;;;;;;;;5017000;28;19921;-85
2022/09/05 11:47:54;;;;;;;;;;;;;;;;;;5017073;28;20285;-85
2022/09/05 11:50:20;;;;;;;;;;;;;;;;;;5010947;28;19972;-84
2022/09/05 11:52:47;;;;;;;;;;;;;;;;;;4995142;28;19949;-85
2022/09/05 11:55:12;;;;;;;;;;;;;;;;;;4995121;28;19913;-80
2022/09/05 11:57:38;;;;;;;;;;;;;;;;;;4995007;28;19914;-82
2022/09/05 12:00:05;;;;;;;;;;;;;;;;;;4994024;28;20289;-81
2022/09/05 12:02:32;;;;;;;;;;;;;;;;;;4993134;28;19910;-82
2022/09/05 12:04:57;;;;;;;;;;;;;;;;;;4994675;28;20013;-82
2022/09/05 12:07:22;;;;;;;;;;;;;;;;;;4994269;28;19948;-81
2022/09/05 12:09:48;;;;;;;;;;;;;;;;;;4994166;28;20381;-81
2022/09/05 12:12:15;;;;;;;;;;;;;;;;;;4995396;28;19914;-82
2022/09/05 12:14:40;;;;;;;;;;;;;;;;;;4978154;28;20004;-82
2022/09/05 12:17:06;;;;;;;;;;;;;;;;;;4994064;28;19972;-80
2022/09/05 12:19:31;;;;;;;;;;;;;;;;;;4995100;28;20250;-79
2022/09/05 12:22:01;;;;;;;;;;;;;;;;;;4995258;28;20373;-81
2022/09/05 12:24:26;;;;;;;;;;;;;;;;;;4994762;28;20066;-82
2022/09/05 12:26:51;;;;;;;;;;;;;;;;;;4994057;28;20425;-81
2022/09/05 12:29:17;;;;;;;;;;;;;;;;;;4994954;28;20332;-82
2022/09/05 12:31:43;;;;;;;;;;;;;;;;;;4995222;28;19914;-82
2022/09/05 12:34:09;;;;;;;;;;;;;;;;;;4995025;28;19929;-83
2022/09/05 12:36:35;;;;;;;;;;;;;;;;;;4995061;28;20189;-82
2022/09/05 12:39:00;;;;;;;;;;;;;;;;;;4994791;28;20389;-82
2022/09/05 12:41:25;;;;;;;;;;;;;;;;;;4994743;28;20346;-83
2022/09/05 12:43:51;;;;;;;;;;;;;;;;;;4993363;28;20336;-82
2022/09/05 12:46:16;;;;;;;;;;;;;;;;;;4993208;28;20524;-83
2022/09/05 12:48:41;;;;;;;;;;;;;;;;;;4992907;28;19978;-83
2022/09/05 12:51:07;;;;;;;;;;;;;;;;;;4994827;28;19972;-82
2022/09/05 12:53:34;;;;;;;;;;;;;;;;;;4994279;28;19921;-83
2022/09/05 12:56:00;;;;;;;;;;;;;;;;;;4993091;28;19918;-82
2022/09/05 12:58:25;;;;;;;;;;;;;;;;;;4994158;28;19936;-81
2022/09/05 13:00:51;;;;;;;;;;;;;;;;;;4994194;28;19921;-82
2022/09/05 13:03:16;;;;;;;;;;;;;;;;;;4994213;28;19914;-83
2022/09/05 13:05:43;;;;;;;;;;;;;;;;;;4992986;28;19966;-82
2022/09/05 13:08:09;;;;;;;;;;;;;;;;;;5009286;28;19961;-82
2022/09/05 13:10:36;;;;;;;;;;;;;;;;;;4993797;28;20381;-81
2022/09/05 13:13:02;;;;;;;;;;;;;;;;;;4993917;28;19914;-82
2022/09/05 13:15:27;;;;;;;;;;;;;;;;;;4993737;28;20297;-82
2022/09/05 13:17:52;;;;;;;;;;;;;;;;;;4993899;28;20253;-82
2022/09/05 13:20:18;;;;;;;;;;;;;;;;;;4976933;28;20024;-82
2022/09/05 13:22:45;;;;;;;;;;;;;;;;;;4992098;28;20043;-81
2022/09/05 13:25:10;;;;;;;;;;;;;;;;;;4991960;28;19960;-82
2022/09/05 13:27:38;;;;;;;;;;;;;;;;;;4993065;28;19949;-82
2022/09/05 13:30:06;;;;;;;;;;;;;;;;;;4993384;28;19968;-82
2022/09/05 13:32:31;;;;;;;;;;;;;;;;;;4992548;28;19914;-82
2022/09/05 13:34:57;;;;;;;;;;;;;;;;;;4992849;28;20461;-82
2022/09/05 13:37:22;;;;;;;;;;;;;;;;;;4993298;28;19960;-80
2022/09/05 13:39:47;;;;;;;;;;;;;;;;;;4992035;28;19914;-83
2022/09/05 13:42:17;;;;;;;;;;;;;;;;;;4993738;28;20261;-81
2022/09/05 13:44:45;;;;;;;;;;;;;;;;;;4991945;28;20377;-81
2022/09/05 13:47:10;;;;;;;;;;;;;;;;;;4992512;28;19921;-83
2022/09/05 13:49:36;;;;;;;;;;;;;;;;;;4992214;28;19933;-82
2022/09/05 13:52:02;;;;;;;;;;;;;;;;;;4994128;28;20301;-82
2022/09/05 13:54:27;;;;;;;;;;;;;;;;;;4993194;28;19959;-81
2022/09/05 13:56:53;;;;;;;;;;;;;;;;;;4993870;28;20395;-82
2022/09/05 13:59:18;;;;;;;;;;;;;;;;;;4992709;28;19918;-82
2022/09/05 14:01:43;;;;;;;;;;;;;;;;;;4992268;28;19921;-80
2022/09/05 14:04:10;;;;;;;;;;;;;;;;;;4992021;28;20016;-81
2022/09/05 14:06:35;;;;;;;;;;;;;;;;;;4993073;28;19944;-82
2022/09/05 14:09:03;;;;;;;;;;;;;;;;;;4991958;28;19914;-82
2022/09/05 14:11:30;;;;;;;;;;;;;;;;;;4991815;28;19917;-81
2022/09/05 14:13:57;;;;;;;;;;;;;;;;;;4992811;28;19945;-81
2022/09/05 14:16:22;;;;;;;;;;;;;;;;;;4993198;28;20467;-83
2022/09/05 14:21:32;;;;;;;;;;;;;;;;;;4992674;28;19913;-83
2022/09/05 14:23:57;;;;;;;;;;;;;;;;;;4992791;28;20004;-81
2022/09/05 14:26:23;;;;;;;;;;;;;;;;;;4992735;28;19969;-81
2022/09/05 14:28:48;;;;;;;;;;;;;;;;;;4992221;28;19918;-80
2022/09/05 14:31:14;;;;;;;;;;;;;;;;;;4993488;28;19914;-82
2022/09/05 14:33:39;;;;;;;;;;;;;;;;;;4993125;28;19917;-81
2022/09/05 14:36:05;;;;;;;;;;;;;;;;;;4992581;28;20449;-82
2022/09/05 14:38:31;;;;;;;;;;;;;;;;;;4992266;28;20408;-81
2022/09/05 14:40:56;;;;;;;;;;;;;;;;;;4991198;28;20096;-81
2022/09/05 14:43:22;;;;;;;;;;;;;;;;;;4992566;28;20016;-81
2022/09/05 14:45:47;;;;;;;;;;;;;;;;;;4992329;28;20011;-81
2022/09/05 14:48:12;;;;;;;;;;;;;;;;;;4991667;28;20016;-81
2022/09/05 14:50:38;;;;;;;;;;;;;;;;;;4991741;28;20060;-82
2022/09/05 14:53:03;;;;;;;;;;;;;;;;;;4991310;28;19952;-80
2022/09/05 14:55:29;;;;;;;;;;;;;;;;;;4991004;28;20393;-82
2022/09/05 14:57:54;;;;;;;;;;;;;;;;;;4975590;28;19936;-82
2022/09/05 15:00:22;;;;;;;;;;;;;;;;;;4992624;28;20009;-82
2022/09/05 15:02:48;;;;;;;;;;;;;;;;;;4975386;28;19924;-81
2022/09/05 15:05:13;;;;;;;;;;;;;;;;;;4991967;28;19996;-81
2022/09/05 15:07:39;;;;;;;;;;;;;;;;;;4993118;28;20391;-83
2022/09/05 15:10:04;;;;;;;;;;;;;;;;;;4994243;28;19921;-83
2022/09/05 15:12:31;;;;;;;;;;;;;;;;;;4977709;28;19914;-82
2022/09/05 15:14:57;;;;;;;;;;;;;;;;;;4994062;28;19991;-83
2022/09/05 15:17:22;;;;;;;;;;;;;;;;;;5001007;28;19961;-83
2022/09/05 15:19:47;;;;;;;;;;;;;;;;;;5007658;28;19949;-84
2022/09/05 15:22:15;;;;;;;;;;;;;;;;;;4995616;28;20004;-84
2022/09/05 15:24:41;;;;;;;;;;;;;;;;;;5013619;28;20014;-83
2022/09/05 15:27:06;;;;;;;;;;;;;;;;;;5012919;28;19921;-84
2022/09/05 15:29:34;;;;;;;;;;;;;;;;;;5012778;28;19914;-84
2022/09/05 15:32:00;;;;;;;;;;;;;;;;;;5016605;28;19922;-84
2022/09/05 15:34:25;;;;;;;;;;;;;;;;;;5015610;28;19936;-83
2022/09/05 15:36:51;;;;;;;;;;;;;;;;;;5019939;28;20020;-83
2022/09/05 15:39:16;;;;;;;;;;;;;;;;;;5018798;28;20024;-84
2022/09/05 15:41:41;;;;;;;;;;;;;;;;;;5016480;28;19913;-84
2022/09/05 15:44:07;;;;;;;;;;;;;;;;;;5013151;28;19913;-81
2022/09/05 15:46:32;;;;;;;;;;;;;;;;;;5004413;28;19923;-84
2022/09/05 15:48:58;;;;;;;;;;;;;;;;;;5011453;28;19925;-83
2022/09/05 15:51:23;;;;;;;;;;;;;;;;;;5010153;28;19917;-85
2022/09/05 15:53:49;;;;;;;;;;;;;;;;;;5014131;28;20296;-86
2022/09/05 15:56:14;;;;;;;;;;;;;;;;;;5019067;28;19914;-88
2022/09/05 15:58:39;;;;;;;;;;;;;;;;;;5008797;28;20332;-87
2022/09/05 16:01:05;;;;;;;;;;;;;;;;;;5019467;28;19906;-88
2022/09/05 16:03:32;;;;;;;;;;;;;;;;;;5036788;28;19997;-88
2022/09/05 16:05:58;;;;;;;;;;;;;;;;;;5018859;28;19988;-88
2022/09/05 16:08:23;;;;;;;;;;;;;;;;;;5013778;28;19913;-88
2022/09/05 16:10:49;;;;;;;;;;;;;;;;;;4998783;28;20305;-88
2022/09/05 16:13:18;;;;;;;;;;;;;;;;;;5003297;28;19939;-88
2022/09/05 16:15:43;;;;;;;;;;;;;;;;;;5014083;28;19920;-88
2022/09/05 16:18:09;;;;;;;;;;;;;;;;;;5015254;28;20316;-88
2022/09/05 16:20:34;;;;;;;;;;;;;;;;;;5015637;28;20012;-88
2022/09/05 16:23:03;;;;;;;;;;;;;;;;;;5013441;28;19968;-86
2022/09/05 16:25:28;;;;;;;;;;;;;;;;;;5015031;28;19917;-86
2022/09/05 16:27:53;;;;;;;;;;;;;;;;;;5015114;28;19919;-85
2022/09/05 16:30:19;;;;;;;;;;;;;;;;;;5017455;28;20385;-88
2022/09/05 16:32:44;;;;;;;;;;;;;;;;;;5014539;28;20328;-87
2022/09/05 16:35:10;;;;;;;;;;;;;;;;;;5013976;28;20270;-82
2022/09/05 16:37:35;;;;;;;;;;;;;;;;;;5014888;28;20402;-84
2022/09/05 16:40:01;;;;;;;;;;;;;;;;;;5014318;28;19913;-89
2022/09/05 16:42:26;;;;;;;;;;;;;;;;;;4996438;28;19913;-81
2022/09/05 16:44:52;;;;;;;;;;;;;;;;;;5013261;28;19968;-82